Time;durP1;ratioP1;P1;durP2;ratioP2;P2;SDS_P1;SDS_P2;PMS_P1;PMS_P2;Temp;Humidity;BMP_temperature;BMP_pressure;BME280_temperature;BME280_humidity;BME280_pressure;Samples;Min_cycle;Max_cycle;Signal;HPM_P1;HPM_P2
2022/08/05 00:03:24;;;;;;;9.90;3.15;;;;;;;19.13;71.78;101554.75;10460370;28;20029;-73
2022/08/05 00:08:24;;;;;;;17.83;4.85;;;;;;;19.07;72.13;101555.69;10460301;28;20485;-74
2022/08/05 00:13:25;;;;;;;7.65;3.05;;;;;;;19.09;70.85;101577.44;10459696;28;20037;-73
2022/08/05 00:18:25;;;;;;;4.65;4.13;;;;;;;19.09;70.66;101581.00;10459862;28;20033;-73
2022/08/05 00:23:26;;;;;;;12.55;4.07;;;;;;;19.12;70.78;101580.53;10460864;28;20032;-73
2022/08/05 00:28:26;;;;;;;3.92;3.08;;;;;;;19.11;70.26;101589.81;10459692;28;20055;-74
2022/08/05 00:33:26;;;;;;;6.90;3.35;;;;;;;19.11;69.86;101587.09;10460075;28;20094;-73
2022/08/05 00:38:27;;;;;;;8.10;3.78;;;;;;;19.07;70.99;101582.31;10459318;28;20052;-73
2022/08/05 00:43:29;;;;;;;13.07;4.63;;;;;;;19.07;74.38;101583.16;10457687;28;20096;-74
2022/08/05 00:48:29;;;;;;;5.88;4.43;;;;;;;19.00;72.91;101575.03;10458344;28;20033;-73
2022/08/05 00:53:29;;;;;;;10.20;3.88;;;;;;;18.91;72.63;101573.72;10459387;28;20033;-73
2022/08/05 00:58:30;;;;;;;5.30;3.90;;;;;;;18.80;72.34;101586.34;10457232;28;20036;-74
2022/08/05 01:03:30;;;;;;;3.42;3.17;;;;;;;18.75;72.81;101582.63;10458415;28;20469;-73
2022/08/05 01:08:31;;;;;;;5.38;3.83;;;;;;;18.73;72.46;101584.75;10456587;28;20068;-73
2022/08/05 01:13:37;;;;;;;7.90;3.50;;;;;;;18.69;73.33;101587.09;10458088;28;20037;-73
2022/08/05 01:18:41;;;;;;;6.13;4.13;;;;;;;18.68;75.47;101601.91;10458016;28;20452;-73
2022/08/05 01:23:56;;;;;;;6.10;3.42;;;;;;;18.72;75.13;101608.63;10456395;28;20281;-73
2022/08/05 01:29:34;;;;;;;4.07;3.17;;;;;;;18.74;74.84;101611.16;10458652;28;20060;-73
2022/08/05 01:34:41;;;;;;;11.80;3.05;;;;;;;18.77;74.51;101627.97;10455052;28;20048;-73
2022/08/05 01:39:42;;;;;;;5.55;2.10;;;;;;;18.81;73.18;101633.81;10456152;28;20040;-73
2022/08/05 01:44:42;;;;;;;4.97;2.50;;;;;;;18.82;73.29;101624.50;10439808;28;20029;-73
2022/08/05 01:49:43;;;;;;;2.38;2.25;;;;;;;18.78;72.40;101618.66;10439830;28;20025;-74
2022/08/05 01:54:55;;;;;;;4.85;2.88;;;;;;;18.69;74.58;101614.53;10439172;28;20108;-73
2022/08/05 01:59:58;;;;;;;7.93;3.50;;;;;;;18.59;73.69;101603.31;10440202;28;20032;-73
2022/08/05 02:05:02;;;;;;;9.95;3.95;;;;;;;18.45;74.56;101602.69;10458658;28;20094;-73
2022/08/05 02:10:03;;;;;;;7.05;3.35;;;;;;;18.33;75.43;101594.38;10456083;28;20059;-74
2022/08/05 02:15:15;;;;;;;7.78;3.20;;;;;;;18.21;78.23;101590.75;10464012;28;20058;-73
2022/08/05 02:20:22;;;;;;;7.57;3.15;;;;;;;18.17;79.29;101583.25;10448511;28;20049;-73
2022/08/05 02:25:28;;;;;;;5.18;3.03;;;;;;;18.07;77.43;101590.09;10463310;28;20021;-73
2022/08/05 02:30:38;;;;;;;4.33;3.20;;;;;;;18.00;76.88;101589.34;10462659;28;20064;-74
2022/08/05 02:35:39;;;;;;;2.67;2.47;;;;;;;17.94;76.89;101584.78;10462880;28;20500;-73
2022/08/05 02:40:40;;;;;;;11.15;3.67;;;;;;;17.85;77.78;101586.16;10446004;28;20060;-74
2022/08/05 02:45:41;;;;;;;7.38;2.55;;;;;;;17.78;78.08;101583.50;10447149;28;20196;-75
2022/08/05 02:50:50;;;;;;;3.88;3.03;;;;;;;17.74;79.57;101595.09;10445934;28;20033;-73
2022/08/05 02:55:54;;;;;;;8.50;2.45;;;;;;;17.72;78.17;101592.59;10447014;28;20037;-73
2022/08/05 03:07:14;;;;;;;3.97;2.38;;;;;;;17.58;78.34;101605.63;10296043;28;20475;-74
2022/08/05 03:54:34;;;;;;;4.50;3.38;;;;;;;16.81;77.66;101626.06;10099006;29;20041;-73
2022/08/05 04:00:25;;;;;;;;;;;;;;;;;;;;;
2022/08/05 04:05:31;;;;;;;5.50;3.10;;;;;;;16.62;77.83;101611.44;10097084;29;20040;-74
2022/08/05 04:10:33;;;;;;;4.53;3.30;;;;;;;16.52;78.26;101618.22;10268770;28;20050;-73
2022/08/05 04:16:00;;;;;;;2.72;2.53;;;;;;;16.46;79.00;101613.66;10352549;28;20098;-73
2022/08/05 04:21:02;;;;;;;4.40;2.78;;;;;;;16.39;78.59;101604.63;10429403;28;20024;-73
2022/08/05 04:26:03;;;;;;;3.95;2.50;;;;;;;16.36;79.57;101626.94;10460834;28;20021;-73
2022/08/05 04:31:08;;;;;;;3.97;2.95;;;;;;;16.33;79.31;101610.97;10441331;28;20366;-73
2022/08/05 04:36:14;;;;;;;6.38;2.97;;;;;;;16.32;79.58;101611.22;10440044;28;20033;-74
2022/08/05 04:41:22;;;;;;;3.83;3.33;;;;;;;16.24;79.17;101618.63;10459827;28;20033;-73
2022/08/05 04:46:23;;;;;;;4.75;2.30;;;;;;;16.24;79.95;101617.75;10440408;28;20063;-73
2022/08/05 04:51:23;;;;;;;5.45;2.95;;;;;;;16.26;79.35;101612.91;10409067;28;20037;-73
2022/08/05 05:08:34;;;;;;;5.88;2.53;;;;;;;16.44;80.33;101618.50;10099775;29;20084;-73
2022/08/05 05:13:35;;;;;;;4.80;3.65;;;;;;;16.58;79.75;101637.56;10131953;29;20059;-74
2022/08/05 05:18:37;;;;;;;2.47;2.25;;;;;;;17.19;79.68;101636.94;10376328;28;20041;-73
2022/08/05 05:23:37;;;;;;;36.22;7.63;;;;;;;18.27;80.74;101627.38;10422322;28;20190;-73
2022/08/05 05:28:40;;;;;;;5.53;3.22;;;;;;;19.08;80.40;101631.50;10458484;28;20041;-74
2022/08/05 05:33:41;;;;;;;3.45;2.78;;;;;;;19.66;79.80;101630.72;10439716;28;20033;-74
2022/08/05 05:39:09;;;;;;;8.95;2.10;;;;;;;20.37;77.75;101636.88;10439448;28;20418;-74
2022/08/05 05:50:44;;;;;;;2.10;1.40;;;;;;;21.59;75.27;101657.50;10455474;28;20041;-74
2022/08/05 05:55:46;;;;;;;7.28;1.27;;;;;;;22.01;74.20;101651.47;10458194;28;20059;-74
2022/08/05 06:01:18;;;;;;;6.05;1.60;;;;;;;22.49;71.80;101658.19;10457944;28;20037;-74
2022/08/05 06:12:44;;;;;;;4.00;1.98;;;;;;;23.21;69.97;101654.19;10487502;28;20508;-74
2022/08/05 06:17:46;;;;;;;2.95;1.50;;;;;;;23.43;67.13;101653.25;10453768;28;20068;-74
2022/08/05 06:28:40;;;;;;;2.58;1.10;;;;;;;24.05;63.95;101660.84;10443285;28;20069;-75
2022/08/05 06:34:33;;;;;;;4.30;2.10;;;;;;;24.26;63.03;101660.94;10389073;28;20044;-75
2022/08/05 06:40:13;;;;;;;2.67;1.20;;;;;;;24.70;62.31;101675.22;10456550;28;20108;-75
2022/08/05 06:45:14;;;;;;;1.00;1.00;;;;;;;24.98;59.73;101676.66;10455299;28;20376;-75
2022/08/05 06:50:16;;;;;;;1.10;1.00;;;;;;;25.07;59.82;101668.63;10456450;28;20041;-75
2022/08/05 06:55:17;;;;;;;1.33;1.23;;;;;;;25.39;56.42;101682.22;10437361;28;20041;-75
2022/08/05 07:00:24;;;;;;;1.38;1.27;;;;;;;25.69;52.03;101680.53;10461445;28;20024;-75
2022/08/05 07:06:01;;;;;;;20.40;1.45;;;;;;;26.65;49.60;101682.16;10462248;28;20124;-75
2022/08/05 07:23:56;;;;;;;3.10;1.45;;;;;;;23.09;55.95;101713.47;10503022;28;20040;-75
2022/08/05 07:29:57;;;;;;;1.13;1.05;;;;;;;22.60;56.89;101724.53;10526853;28;20047;-75
2022/08/05 07:53:32;;;;;;;1.05;1.02;;;;;;;21.85;59.07;101775.59;10293460;28;20452;-75
2022/08/05 08:04:19;;;;;;;4.80;1.60;;;;;;;21.17;59.90;101788.47;10174804;29;20040;-74
2022/08/05 08:09:23;;;;;;;6.50;1.30;;;;;;;21.11;60.28;101793.88;10384366;28;20131;-74
2022/08/05 08:14:23;;;;;;;7.45;0.90;;;;;;;20.99;60.39;101798.56;10526258;28;20127;-74
2022/08/05 08:19:24;;;;;;;1.33;1.15;;;;;;;20.73;60.24;101805.50;10542391;28;20119;-74
2022/08/05 08:24:51;;;;;;;172.18;45.75;;;;;;;20.49;60.29;101815.69;10508170;28;20085;-74
2022/08/05 08:30:08;;;;;;;1.15;0.95;;;;;;;20.20;60.21;101817.50;10503359;28;20039;-74
2022/08/05 08:35:16;;;;;;;1.42;1.33;;;;;;;20.04;60.07;101829.19;10542128;28;20113;-74
2022/08/05 08:40:17;;;;;;;2.53;1.20;;;;;;;19.92;59.97;101835.53;10541320;28;20126;-74
2022/08/05 09:09:01;;;;;;;8.93;1.35;;;;;;;19.76;59.19;101871.97;10331403;28;20038;-74
2022/08/05 09:14:39;;;;;;;;;;;;;;;;;;;;;
2022/08/05 09:26:18;;;;;;;8.57;1.80;;;;;;;19.97;59.20;101882.41;10187439;28;20031;-74
2022/08/05 09:31:19;;;;;;;1.20;1.10;;;;;;;19.98;59.33;101886.81;10445434;28;20044;-74
2022/08/05 09:36:39;;;;;;;6.90;1.88;;;;;;;20.03;59.22;101894.34;10439148;28;20032;-74
2022/08/05 09:53:28;;;;;;;6.40;1.83;;;;;;;20.16;59.22;101916.13;10238780;29;20079;-74
2022/08/05 09:58:35;;;;;;;2.15;1.45;;;;;;;20.15;59.11;101930.13;10411809;28;20041;-74
2022/08/05 10:09:27;;;;;;;1.92;1.13;;;;;;;20.12;57.81;101933.34;10319449;28;20035;-74
2022/08/05 10:14:30;;;;;;;0.90;0.90;;;;;;;20.19;57.21;101934.06;10440516;28;20053;-74
2022/08/05 10:19:38;;;;;;;7.93;1.00;;;;;;;20.38;56.60;101929.31;10464082;28;20032;-74
2022/08/05 10:42:27;;;;;;;1.10;1.10;;;;;;;21.64;55.63;101932.41;10139897;29;20130;-74
2022/08/05 10:53:52;;;;;;;3.03;1.63;;;;;;;24.26;53.31;101943.25;10023134;29;20173;-74
2022/08/05 10:59:07;;;;;;;4.38;1.13;;;;;;;24.50;49.77;101949.28;10272126;28;20469;-74
2022/08/05 11:10:00;;;;;;;;;;;;;;;;;;;;;
2022/08/05 11:15:08;;;;;;;3.40;1.45;;;;;;;25.15;50.84;101964.69;10416613;28;20092;-74
2022/08/05 11:20:31;;;;;;;2.35;1.60;;;;;;;24.82;50.85;101971.38;10389772;28;20530;-74
2022/08/05 11:25:42;;;;;;;2.42;1.73;;;;;;;24.16;51.35;101977.22;10503653;28;20036;-74
2022/08/05 11:31:01;;;;;;;10.88;1.73;;;;;;;24.01;52.43;101982.59;10485888;28;20028;-75
2022/08/05 11:36:05;;;;;;;2.25;1.15;;;;;;;24.39;52.15;101978.81;10484437;28;20028;-74
2022/08/05 11:41:06;;;;;;;6.45;1.42;;;;;;;24.59;51.60;101990.06;10501101;28;20032;-74
2022/08/05 11:46:07;;;;;;;0.70;0.70;;;;;;;25.20;50.04;101992.41;10501610;28;20456;-74
2022/08/05 11:51:14;;;;;;;2.08;1.40;;;;;;;26.38;47.05;102004.69;10502019;28;20119;-74
2022/08/05 11:56:17;;;;;;;1.95;1.50;;;;;;;27.23;46.08;102003.25;10486135;28;20124;-75
2022/08/05 12:01:20;;;;;;;1.02;1.02;;;;;;;28.25;43.58;101997.16;10468452;28;20416;-74
2022/08/05 12:06:32;;;;;;;1.40;1.30;;;;;;;29.24;40.99;102005.16;10468312;28;20032;-74
2022/08/05 12:11:33;;;;;;;0.70;0.70;;;;;;;29.82;38.25;102002.19;10468020;28;20131;-74
2022/08/05 12:17:05;;;;;;;0.50;0.50;;;;;;;27.76;41.37;102018.34;10483781;28;20143;-74
2022/08/05 12:22:12;;;;;;;0.95;0.95;;;;;;;27.75;42.23;102029.75;10471910;28;20387;-74
2022/08/05 12:27:23;;;;;;;1.05;1.05;;;;;;;27.40;41.61;102044.63;10468736;28;20044;-75
2022/08/05 12:32:35;;;;;;;2.92;1.25;;;;;;;26.32;44.41;102043.84;10483712;28;20033;-74
2022/08/05 12:38:04;;;;;;;;;;;;;;;;;;;;;
2022/08/05 13:14:15;;;;;;;;;;;;;;;;;;;;;
2022/08/05 13:32:02;;;;;;;2.38;1.33;;;;;;;24.72;46.16;102107.06;10099330;29;20043;-74
2022/08/05 13:42:28;;;;;;;1.95;1.33;;;;;;;26.38;43.67;102106.63;10010767;29;20070;-74
2022/08/05 13:47:36;;;;;;;4.57;1.52;;;;;;;27.04;43.90;102117.81;10152332;28;20470;-74
2022/08/05 13:58:18;;;;;;;6.35;1.63;;;;;;;25.08;45.52;102122.06;10331167;28;20046;-74
2022/08/05 14:03:19;;;;;;;2.72;1.17;;;;;;;24.52;46.02;102144.53;10420989;28;20400;-73
2022/08/05 14:20:43;;;;;;;;;;;;;;;;;;;;;
2022/08/05 15:14:37;;;;;;;5.15;2.53;;;;;;;23.04;46.10;102205.19;9872725;29;20064;-74
2022/08/05 15:19:41;;;;;;;;;;;;;;;22.73;46.58;102215.66;9984622;29;20057;-74
2022/08/05 15:31:20;;;;;;;1.23;1.10;;;;;;;22.81;47.18;102229.03;10122320;29;20044;-74
2022/08/05 15:42:32;;;;;;;4.25;2.15;;;;;;;23.20;46.55;102234.78;10294489;28;20027;-74
2022/08/05 15:47:33;;;;;;;3.40;1.67;;;;;;;23.05;46.23;102229.81;10420479;28;20041;-74
2022/08/05 15:52:35;;;;;;;1.33;1.23;;;;;;;22.03;46.81;102236.81;10420009;28;20056;-74
2022/08/05 15:57:42;;;;;;;7.65;1.65;;;;;;;21.58;47.22;102237.44;10419236;28;20047;-74
2022/08/05 16:03:08;;;;;;;2.97;1.88;;;;;;;21.91;47.20;102235.16;10420927;28;20034;-73
2022/08/05 16:08:15;;;;;;;1.27;1.15;;;;;;;21.68;47.63;102244.28;10402812;28;20502;-74
2022/08/05 16:13:15;;;;;;;1.80;1.10;;;;;;;21.87;47.22;102254.09;10384044;28;20076;-73
2022/08/05 16:18:17;;;;;;;11.73;2.28;;;;;;;21.62;47.87;102250.75;10420126;28;20057;-74
2022/08/05 16:23:17;;;;;;;1.50;1.40;;;;;;;21.23;47.57;102256.63;10417779;28;20036;-73
2022/08/05 16:28:18;;;;;;;1.50;1.40;;;;;;;20.78;47.50;102259.84;10418517;28;20037;-74
2022/08/05 16:33:18;;;;;;;3.83;1.67;;;;;;;20.57;47.21;102252.91;10419944;28;20041;-73
2022/08/05 16:38:19;;;;;;;6.95;3.00;;;;;;;20.24;47.86;102268.97;10418097;28;20033;-74
2022/08/05 16:43:21;;;;;;;4.45;2.08;;;;;;;20.06;47.93;102265.09;10417819;28;20461;-74
2022/08/05 16:48:22;;;;;;;5.15;1.30;;;;;;;20.02;48.30;102276.81;10400384;28;20034;-74
2022/08/05 16:53:22;;;;;;;2.63;1.88;;;;;;;19.90;48.24;102288.53;10399937;28;20037;-73
2022/08/05 16:58:22;;;;;;;7.65;1.73;;;;;;;19.51;48.72;102293.28;10417910;28;20037;-74
2022/08/05 17:03:23;;;;;;;1.35;1.25;;;;;;;19.36;48.33;102290.00;10416548;28;20106;-73
2022/08/05 17:08:23;;;;;;;3.63;2.13;;;;;;;19.28;48.91;102291.13;10399110;28;20037;-73
2022/08/05 17:13:24;;;;;;;6.13;2.13;;;;;;;19.05;48.94;102299.09;10417016;28;20046;-73
2022/08/05 17:18:28;;;;;;;5.88;1.73;;;;;;;18.83;48.86;102298.59;10436784;28;20048;-73
2022/08/05 17:23:29;;;;;;;5.28;1.40;;;;;;;18.63;48.90;102312.31;10439075;28;20084;-74
2022/08/05 17:28:29;;;;;;;7.63;1.65;;;;;;;18.53;48.75;102300.97;10459006;28;20357;-75
2022/08/05 17:33:30;;;;;;;6.95;2.05;;;;;;;18.39;49.51;102302.09;10458746;28;20539;-73
2022/08/05 17:44:12;;;;;;;2.13;1.83;;;;;;;18.09;50.31;102305.31;10432745;28;20135;-73
2022/08/05 17:49:13;;;;;;;4.57;2.22;;;;;;;17.92;50.33;102315.88;10439573;28;20037;-73
2022/08/05 17:54:20;;;;;;;5.75;1.42;;;;;;;17.76;50.71;102316.28;10438786;28;20040;-73
2022/08/05 17:59:27;;;;;;;;;;;;;;;17.66;50.34;102316.69;10440237;28;20037;-73
2022/08/05 18:23:05;;;;;;;2.58;1.48;;;;;;;17.32;51.74;102334.97;10211241;28;20066;-73
2022/08/05 18:28:35;;;;;;;;;;;;;;;;;;;;;
2022/08/05 18:33:56;;;;;;;;;;;;;;;;;;;;;
2022/08/05 18:38:56;;;;;;;6.90;2.33;;;;;;;17.10;51.60;102349.84;10394931;28;20400;-69
2022/08/05 18:43:57;;;;;;;22.08;3.35;;;;;;;16.99;52.60;102350.47;10438552;28;20033;-69
2022/08/05 18:52:31;;;;;;;8.20;1.83;;;;;;;16.91;52.24;102356.94;10438743;28;20121;-69
2022/08/05 18:54:38;;;;;;;3.45;1.48;;;;;;;16.78;52.71;102362.34;10443641;28;20037;-69
2022/08/05 18:59:38;;;;;;;2.67;2.08;;;;;;;16.69;52.76;102367.16;10464651;28;20047;-69
2022/08/05 19:04:40;;;;;;;8.05;2.40;;;;;;;16.56;52.89;102364.31;10445198;28;20029;-69
2022/08/05 19:09:41;;;;;;;7.45;2.67;;;;;;;16.43;52.41;102365.94;10462931;28;20033;-69
2022/08/05 19:15:07;;;;;;;3.13;1.63;;;;;;;16.27;52.56;102379.91;10462095;28;20033;-70
2022/08/05 19:21:14;;;;;;;5.93;2.65;;;;;;;16.13;52.50;102375.38;10457142;28;20053;-69
2022/08/05 19:26:15;;;;;;;5.15;1.90;;;;;;;16.02;53.41;102394.03;10422055;28;20041;-69
2022/08/05 19:31:32;;;;;;;1.67;1.52;;;;;;;15.94;53.71;102396.88;10420061;28;20473;-70
2022/08/05 19:36:33;;;;;;;1.77;1.40;;;;;;;15.85;53.38;102400.78;10420886;28;20037;-69
2022/08/05 19:41:37;;;;;;;1.60;1.50;;;;;;;15.75;53.39;102397.53;10404164;28;20041;-69
2022/08/05 19:46:40;;;;;;;6.53;1.77;;;;;;;15.69;53.32;102406.50;10402334;28;20469;-69
2022/08/05 19:51:58;;;;;;;2.42;1.42;;;;;;;15.66;54.09;102415.06;10419918;28;20045;-70
2022/08/05 20:03:25;;;;;;;2.25;1.80;;;;;;;15.50;54.40;102424.34;10296818;28;20039;-70
2022/08/05 20:08:31;;;;;;;5.65;2.15;;;;;;;15.42;54.25;102435.41;10418809;28;20033;-69
2022/08/05 20:13:59;;;;;;;1.77;1.52;;;;;;;15.37;54.90;102438.69;10403297;28;20512;-70
2022/08/05 20:19:21;;;;;;;6.05;2.60;;;;;;;15.27;54.42;102443.59;10400883;28;20430;-69
2022/08/05 20:24:54;;;;;;;;;;;;;;;;;;;;;
2022/08/05 20:30:42;;;;;;;3.85;1.73;;;;;;;15.14;55.74;102459.81;10459977;28;20041;-73
2022/08/05 20:35:42;;;;;;;3.88;2.13;;;;;;;15.10;55.62;102456.63;10458941;28;20086;-67
2022/08/05 20:40:44;;;;;;;4.15;1.33;;;;;;;15.02;55.82;102470.34;10458911;28;20059;-67
2022/08/05 20:45:45;;;;;;;2.53;1.73;;;;;;;14.98;55.56;102474.50;10459389;28;20037;-67
2022/08/05 20:50:46;;;;;;;2.40;2.15;;;;;;;14.93;55.66;102477.78;10459997;28;20041;-68
2022/08/05 20:55:46;;;;;;;4.13;1.77;;;;;;;14.85;56.25;102480.59;10441655;28;20036;-68
2022/08/05 21:00:48;;;;;;;5.07;1.45;;;;;;;14.81;56.79;102485.59;10459375;28;20384;-67
2022/08/05 21:05:48;;;;;;;6.95;2.15;;;;;;;14.77;56.95;102488.88;10458219;28;20029;-67
2022/08/05 21:10:49;;;;;;;3.22;1.95;;;;;;;14.67;56.46;102477.38;10441012;28;20032;-67
2022/08/05 21:15:49;;;;;;;3.60;1.25;;;;;;;14.57;57.02;102483.94;10457535;28;20484;-66
2022/08/05 21:20:49;;;;;;;3.72;2.15;;;;;;;14.57;57.01;102485.84;10439935;28;20033;-68
2022/08/05 21:25:50;;;;;;;7.38;2.40;;;;;;;14.51;57.54;102490.13;10440334;28;20103;-67
2022/08/05 21:30:50;;;;;;;11.55;2.58;;;;;;;14.39;57.79;102503.34;10456680;28;20115;-67
2022/08/05 21:35:50;;;;;;;5.07;2.40;;;;;;;14.26;57.60;102494.06;10458114;28;20056;-66
2022/08/05 21:40:51;;;;;;;2.35;2.05;;;;;;;14.20;57.89;102501.13;10457165;28;20041;-66
2022/08/05 21:45:52;;;;;;;1.10;1.10;;;;;;;14.18;58.10;102505.91;10457627;28;20083;-67
2022/08/05 21:50:52;;;;;;;7.03;1.95;;;;;;;14.05;58.71;102509.22;10422676;28;20067;-67
2022/08/05 21:55:52;;;;;;;7.65;2.25;;;;;;;13.92;58.65;102507.09;10439590;28;20353;-67
2022/08/05 22:00:53;;;;;;;5.75;2.20;;;;;;;13.85;58.44;102508.88;10457039;28;20032;-66
2022/08/05 22:05:53;;;;;;;6.22;2.28;;;;;;;13.83;59.64;102510.91;10439156;28;20531;-67
2022/08/05 22:10:53;;;;;;;7.07;2.38;;;;;;;13.91;59.41;102515.44;10438190;28;20029;-67
2022/08/05 22:15:54;;;;;;;2.80;1.88;;;;;;;13.79;59.70;102519.63;10438424;28;20044;-67
2022/08/05 22:20:55;;;;;;;9.05;2.40;;;;;;;13.70;59.85;102513.38;10438473;28;20080;-66
2022/08/05 22:31:15;;;;;;;7.97;2.38;;;;;;;13.61;60.37;102531.63;10461957;28;20132;-66
2022/08/05 22:36:15;;;;;;;5.40;2.33;;;;;;;13.55;60.58;102526.03;10464572;28;20412;-66
2022/08/05 22:41:17;;;;;;;6.80;2.40;;;;;;;13.41;60.81;102520.31;10446725;28;20043;-66
2022/08/05 22:46:17;;;;;;;7.18;3.03;;;;;;;13.36;61.02;102530.88;10431037;28;20445;-67
2022/08/05 22:51:17;;;;;;;3.10;1.65;;;;;;;13.33;61.80;102533.09;10446153;28;20036;-67
2022/08/05 22:56:18;;;;;;;2.80;2.20;;;;;;;13.34;61.54;102543.81;10463958;28;20040;-67
2022/08/05 23:01:18;;;;;;;15.30;2.75;;;;;;;13.32;61.76;102547.75;10462309;28;20044;-68
2022/08/05 23:06:18;;;;;;;7.97;2.53;;;;;;;13.31;62.20;102562.38;10444757;28;20033;-66
2022/08/05 23:11:19;;;;;;;6.03;2.15;;;;;;;13.26;62.60;102561.00;10463048;28;20048;-66
2022/08/05 23:17:22;;;;;;;9.13;3.00;;;;;;;13.37;62.50;102569.81;10462410;28;20037;-67
2022/08/05 23:21:40;;;;;;;5.55;3.25;;;;;;;13.30;62.99;102568.81;10461258;28;20069;-67
2022/08/05 23:26:40;;;;;;;3.17;2.58;;;;;;;13.28;62.85;102568.16;10461464;28;20465;-67
2022/08/05 23:31:40;;;;;;;4.63;2.67;;;;;;;13.22;63.18;102578.69;10462789;28;20033;-67
2022/08/05 23:36:41;;;;;;;6.50;3.33;;;;;;;13.12;63.77;102585.34;10461913;28;20060;-67
2022/08/05 23:41:41;;;;;;;13.63;3.08;;;;;;;13.10;64.05;102590.94;10462476;28;20041;-66
2022/08/05 23:46:42;;;;;;;2.45;2.00;;;;;;;13.07;64.02;102587.72;10444081;28;20033;-67
2022/08/05 23:57:01;;;;;;;3.72;2.55;;;;;;;12.99;64.80;102604.91;10460273;28;20469;-66
